createdAt,value
2019-05-19T00:01:47.188Z,7.53
2019-05-19T00:04:35.613Z,8.03
2019-05-19T00:07:24.242Z,7.67
2019-05-19T00:10:13.891Z,8.07
2019-05-19T00:13:02.345Z,7.17
2019-05-19T00:15:50.543Z,8.03
2019-05-19T00:18:38.994Z,6.57
2019-05-19T00:21:27.545Z,7.83
2019-05-19T00:24:16.057Z,7.80
2019-05-19T00:27:04.989Z,6.90
2019-05-19T00:29:53.235Z,8.78
2019-05-19T00:32:41.704Z,7.53
2019-05-19T00:35:30.605Z,7.73
2019-05-19T00:38:20.568Z,7.30
2019-05-19T00:41:09.229Z,7.93
2019-05-19T00:43:57.733Z,8.57
2019-05-19T00:46:46.818Z,8.03
2019-05-19T00:49:41.407Z,7.13
2019-05-19T00:52:27.874Z,7.70
2019-05-19T00:55:16.550Z,6.53
2019-05-19T00:58:06.802Z,7.50
2019-05-19T01:00:38.439Z,7.07
2019-05-19T01:03:26.912Z,8.40
2019-05-19T01:06:15.531Z,8.40
2019-05-19T01:09:05.594Z,6.60
2019-05-19T01:11:53.825Z,7.20
2019-05-19T01:14:42.497Z,7.57
2019-05-19T01:17:31.083Z,7.77
2019-05-19T01:20:21.452Z,7.27
2019-05-19T01:23:10.384Z,7.20
2019-05-19T01:25:58.475Z,7.30
2019-05-19T01:28:46.645Z,6.67
2019-05-19T01:31:34.890Z,6.47
2019-05-19T01:34:23.164Z,6.77
2019-05-19T01:37:11.784Z,7.27
2019-05-19T01:40:00.635Z,7.00
2019-05-19T01:42:49.543Z,7.00
2019-05-19T01:45:37.920Z,7.43
2019-05-19T01:48:28.011Z,6.83
2019-05-19T01:51:16.504Z,7.10
2019-05-19T01:54:06.603Z,6.40
2019-05-19T01:56:55.168Z,6.33
2019-05-19T01:59:46.248Z,6.73
2019-05-19T02:02:34.883Z,8.07
2019-05-19T02:05:23.746Z,8.00
2019-05-19T02:08:12.124Z,7.07
2019-05-19T02:11:00.475Z,6.70
2019-05-19T02:13:49.485Z,8.27
2019-05-19T02:16:37.776Z,7.87
2019-05-19T02:19:27.001Z,6.93
2019-05-19T02:22:15.307Z,7.13
2019-05-19T02:25:04.366Z,6.90
2019-05-19T02:27:52.735Z,7.30
2019-05-19T02:30:41.137Z,6.53
2019-05-19T02:33:29.469Z,6.97
2019-05-19T02:36:17.668Z,5.70
2019-05-19T02:39:07.713Z,5.60
2019-05-19T02:41:59.303Z,7.10
2019-05-19T02:44:50.365Z,6.37
2019-05-19T02:47:41.627Z,7.00
2019-05-19T02:50:32.169Z,5.37
2019-05-19T02:53:21.233Z,5.50
2019-05-19T02:56:11.420Z,5.57
2019-05-19T02:59:00.918Z,6.67
2019-05-19T03:01:31.585Z,6.90
2019-05-19T03:04:20.129Z,5.40
2019-05-19T03:07:09.412Z,6.30
2019-05-19T03:09:57.687Z,5.73
2019-05-19T03:12:45.893Z,5.60
2019-05-19T03:15:34.104Z,5.70
2019-05-19T03:18:24.086Z,5.87
2019-05-19T03:21:13.282Z,5.80
2019-05-19T03:24:01.997Z,5.60
2019-05-19T03:26:53.870Z,6.27
2019-05-19T03:29:43.737Z,5.20
2019-05-19T03:32:39.144Z,5.10
2019-05-19T03:35:27.911Z,5.43
2019-05-19T03:38:16.287Z,4.67
2019-05-19T03:41:04.581Z,4.70
2019-05-19T03:43:53.266Z,4.60
2019-05-19T03:46:41.647Z,4.80
2019-05-19T03:49:29.960Z,4.90
2019-05-19T03:52:17.980Z,4.50
2019-05-19T03:55:06.997Z,4.30
2019-05-19T03:57:55.536Z,4.40
2019-05-19T04:00:45.871Z,4.00
2019-05-19T04:03:35.912Z,4.63
2019-05-19T04:06:24.324Z,4.30
2019-05-19T04:09:16.714Z,4.47
2019-05-19T04:12:03.048Z,4.13
2019-05-19T04:14:51.186Z,4.67
2019-05-19T04:17:39.715Z,4.40
2019-05-19T04:20:28.182Z,5.20
2019-05-19T04:23:16.944Z,4.63
2019-05-19T04:26:05.451Z,4.20
2019-05-19T04:28:53.957Z,4.33
2019-05-19T04:31:42.392Z,4.40
2019-05-19T04:34:30.833Z,4.57
2019-05-19T04:37:19.242Z,4.33
2019-05-19T04:40:08.796Z,3.97
2019-05-19T04:42:57.043Z,4.13
2019-05-19T04:45:45.383Z,3.77
2019-05-19T04:48:33.493Z,3.87
2019-05-19T04:51:21.820Z,4.30
2019-05-19T04:54:10.192Z,3.70
2019-05-19T04:56:58.470Z,4.03
2019-05-19T04:59:46.772Z,3.80
2019-05-19T05:02:26.331Z,4.07
2019-05-19T05:05:16.071Z,4.13
2019-05-19T05:08:04.698Z,3.93
2019-05-19T05:10:53.181Z,3.33
2019-05-19T05:13:41.504Z,3.47
2019-05-19T05:16:29.758Z,4.03
2019-05-19T05:19:18.303Z,4.27
2019-05-19T05:22:21.282Z,3.67
2019-05-19T05:24:57.037Z,3.63
2019-05-19T05:27:45.509Z,3.57
2019-05-19T05:30:33.993Z,3.70
2019-05-19T05:33:22.467Z,4.00
2019-05-19T05:36:10.625Z,3.80
2019-05-19T05:38:59.115Z,3.70
2019-05-19T05:41:47.639Z,3.70
2019-05-19T05:44:36.710Z,3.63
2019-05-19T05:47:24.864Z,3.37
2019-05-19T05:50:13.727Z,3.90
2019-05-19T05:53:01.762Z,3.53
2019-05-19T05:55:50.338Z,2.90
2019-05-19T05:58:38.480Z,3.33
2019-05-19T06:01:26.632Z,3.40
2019-05-19T06:04:15.062Z,3.60
2019-05-19T06:07:03.427Z,3.10
2019-05-19T06:09:53.735Z,3.13
2019-05-19T06:12:41.777Z,4.10
2019-05-19T06:15:30.295Z,3.63
2019-05-19T06:18:18.984Z,3.50
2019-05-19T06:21:08.418Z,3.07
2019-05-19T06:23:57.027Z,2.90
2019-05-19T06:26:45.088Z,3.17
2019-05-19T06:29:33.704Z,3.77
2019-05-19T06:32:26.571Z,3.20
2019-05-19T06:35:15.517Z,3.50
2019-05-19T06:38:03.965Z,3.10
2019-05-19T06:40:52.438Z,3.97
2019-05-19T06:43:40.939Z,3.77
2019-05-19T06:46:29.523Z,3.60
2019-05-19T06:49:17.755Z,3.60
2019-05-19T06:52:06.337Z,3.73
2019-05-19T06:54:54.940Z,2.90
2019-05-19T06:57:43.653Z,3.53
2019-05-19T07:00:32.202Z,3.43
2019-05-19T07:03:20.521Z,3.40
2019-05-19T07:06:08.983Z,3.23
2019-05-19T07:08:57.116Z,3.50
2019-05-19T07:11:45.706Z,3.60
2019-05-19T07:14:34.065Z,3.60
2019-05-19T07:17:22.303Z,3.33
2019-05-19T07:20:11.611Z,4.37
2019-05-19T07:22:59.937Z,3.30
2019-05-19T07:25:48.442Z,3.73
2019-05-19T07:28:36.701Z,4.00
2019-05-19T07:31:25.051Z,3.20
2019-05-19T07:34:13.419Z,3.30
2019-05-19T07:37:01.989Z,3.50
2019-05-19T07:39:50.336Z,4.20
2019-05-19T07:42:38.630Z,4.47
2019-05-19T07:45:27.385Z,4.92
2019-05-19T07:48:15.866Z,4.27
2019-05-19T07:51:04.767Z,4.73
2019-05-19T07:53:53.203Z,5.10
2019-05-19T07:56:42.139Z,4.83
2019-05-19T07:59:30.540Z,4.90
2019-05-19T08:02:19.079Z,4.67
2019-05-19T08:05:08.308Z,5.43
2019-05-19T08:07:56.528Z,5.40
2019-05-19T08:10:45.017Z,5.10
2019-05-19T08:13:33.529Z,4.40
2019-05-19T08:16:22.097Z,5.37
2019-05-19T08:19:10.323Z,6.00
2019-05-19T08:21:58.450Z,4.93
2019-05-19T08:24:47.250Z,5.33
2019-05-19T08:27:35.681Z,9.80
2019-05-19T08:30:23.975Z,10.83
2019-05-19T08:33:12.565Z,12.00
2019-05-19T08:36:01.236Z,9.97
2019-05-19T08:38:49.644Z,8.83
2019-05-19T08:41:37.723Z,10.33
2019-05-19T08:44:26.151Z,8.33
2019-05-19T08:47:14.248Z,8.67
2019-05-19T08:50:03.168Z,9.13
2019-05-19T08:52:51.635Z,7.97
2019-05-19T08:55:39.872Z,8.30
2019-05-19T08:58:28.120Z,7.83
2019-05-19T09:01:16.707Z,8.00
2019-05-19T09:04:05.202Z,8.53
2019-05-19T09:06:53.835Z,7.57
2019-05-19T09:09:41.927Z,8.17
2019-05-19T09:12:30.490Z,8.55
2019-05-19T09:15:19.382Z,7.60
2019-05-19T09:18:07.987Z,8.63
2019-05-19T09:20:56.377Z,8.37
2019-05-19T09:23:44.627Z,8.20
2019-05-19T09:26:32.945Z,8.50
2019-05-19T09:29:21.571Z,8.70
2019-05-19T09:32:10.001Z,7.10
2019-05-19T09:34:58.237Z,7.43
2019-05-19T09:37:47.042Z,7.73
2019-05-19T09:40:35.556Z,7.43
2019-05-19T09:43:23.841Z,7.17
2019-05-19T09:46:13.969Z,7.63
2019-05-19T09:49:19.988Z,7.62
2019-05-19T09:52:08.324Z,7.33
2019-05-19T09:54:56.560Z,7.30
2019-05-19T09:57:45.393Z,6.97
2019-05-19T10:00:33.841Z,7.40
2019-05-19T10:03:23.273Z,6.50
2019-05-19T10:06:11.645Z,7.03
2019-05-19T10:09:04.951Z,7.62
2019-05-19T10:12:05.369Z,7.43
2019-05-19T10:14:55.469Z,7.20
2019-05-19T10:17:43.851Z,7.77
2019-05-19T10:20:32.129Z,8.03
2019-05-19T10:23:20.343Z,7.70
2019-05-19T10:26:09.358Z,7.10
2019-05-19T10:28:57.459Z,8.50
2019-05-19T10:31:45.924Z,8.30
2019-05-19T10:34:34.438Z,7.75
2019-05-19T10:37:23.635Z,8.67
2019-05-19T10:40:12.549Z,8.37
2019-05-19T10:43:00.730Z,8.30
2019-05-19T10:45:50.946Z,7.80
2019-05-19T10:48:39.615Z,8.20
2019-05-19T10:51:28.199Z,8.03
2019-05-19T10:54:16.742Z,9.00
2019-05-19T10:57:05.322Z,8.30
2019-05-19T10:59:53.690Z,9.77
2019-05-19T11:02:42.292Z,8.60
2019-05-19T11:05:30.922Z,8.00
2019-05-19T11:08:19.332Z,9.07
2019-05-19T11:11:07.687Z,9.70
2019-05-19T11:13:55.890Z,10.20
2019-05-19T11:16:44.480Z,10.30
2019-05-19T11:19:33.147Z,8.73
2019-05-19T11:22:21.424Z,9.78
2019-05-19T11:25:10.050Z,9.67
2019-05-19T11:27:58.353Z,9.20
2019-05-19T11:30:47.529Z,9.40
2019-05-19T11:33:35.988Z,10.60
2019-05-19T11:36:25.842Z,10.23
2019-05-19T11:39:14.469Z,9.40
2019-05-19T11:42:02.794Z,9.63
2019-05-19T11:44:51.505Z,10.20
2019-05-19T11:47:39.996Z,9.33
2019-05-19T11:50:28.576Z,10.45
2019-05-19T11:53:16.886Z,11.50
2019-05-19T11:56:07.335Z,10.07
2019-05-19T11:58:55.183Z,9.93
2019-05-19T12:01:43.884Z,10.13
2019-05-19T12:04:32.594Z,11.13
2019-05-19T12:07:21.002Z,11.18
2019-05-19T12:10:10.755Z,10.70
2019-05-19T12:12:58.864Z,9.80
2019-05-19T12:15:47.246Z,11.20
2019-05-19T12:18:35.888Z,10.00
2019-05-19T12:21:24.578Z,11.80
2019-05-19T12:24:12.971Z,9.93
2019-05-19T12:27:01.725Z,10.00
2019-05-19T12:29:49.873Z,10.87
2019-05-19T12:32:38.353Z,10.73
2019-05-19T12:35:26.660Z,9.67
2019-05-19T12:38:14.852Z,9.43
2019-05-19T12:41:03.478Z,9.63
2019-05-19T12:43:52.623Z,9.03
2019-05-19T12:46:40.877Z,9.67
2019-05-19T12:49:29.188Z,10.50
2019-05-19T12:52:17.719Z,10.60
2019-05-19T12:55:06.777Z,9.47
2019-05-19T12:57:55.194Z,9.20
2019-05-19T13:00:44.464Z,9.20
2019-05-19T13:03:32.756Z,9.00
2019-05-19T13:06:20.866Z,9.60
2019-05-19T13:09:10.364Z,8.60
2019-05-19T13:11:58.771Z,9.48
2019-05-19T13:14:48.431Z,8.53
2019-05-19T13:17:37.040Z,8.90
2019-05-19T13:20:25.553Z,8.30
2019-05-19T13:23:14.107Z,7.43
2019-05-19T13:26:02.769Z,9.47
2019-05-19T13:28:51.380Z,7.60
2019-05-19T13:31:39.757Z,7.20
2019-05-19T13:34:28.338Z,7.87
2019-05-19T13:37:16.800Z,7.40
2019-05-19T13:40:06.846Z,6.77
2019-05-19T13:42:55.101Z,7.50
2019-05-19T13:45:43.609Z,6.53
2019-05-19T13:48:32.165Z,7.60
2019-05-19T13:51:21.426Z,6.80
2019-05-19T13:54:09.833Z,6.40
2019-05-19T13:57:11.274Z,7.50
2019-05-19T13:59:48.165Z,7.37
2019-05-19T14:02:36.384Z,5.33
2019-05-19T14:05:24.707Z,6.00
2019-05-19T14:08:13.645Z,6.80
2019-05-19T14:11:02.133Z,5.90
2019-05-19T14:13:50.794Z,6.27
2019-05-19T14:16:39.114Z,6.50
2019-05-19T14:19:27.927Z,6.20
2019-05-19T14:22:16.697Z,5.77
2019-05-19T14:25:07.063Z,6.33
2019-05-19T14:27:57.061Z,6.00
2019-05-19T14:30:45.787Z,7.23
2019-05-19T14:33:34.282Z,6.07
2019-05-19T14:36:22.570Z,6.00
2019-05-19T14:39:10.709Z,5.57
2019-05-19T14:42:00.542Z,5.93
2019-05-19T14:44:48.916Z,6.40
2019-05-19T14:47:37.639Z,6.17
2019-05-19T14:50:26.438Z,5.73
2019-05-19T14:53:15.000Z,5.57
2019-05-19T14:56:03.166Z,5.10
2019-05-19T14:58:51.251Z,6.40
2019-05-19T15:01:40.341Z,6.03
2019-05-19T15:04:28.965Z,5.50
2019-05-19T15:07:17.426Z,4.80
2019-05-19T15:10:10.434Z,5.77
2019-05-19T15:12:58.775Z,5.55
2019-05-19T15:15:47.076Z,5.83
2019-05-19T15:18:35.097Z,5.83
2019-05-19T15:21:23.889Z,5.37
2019-05-19T15:24:12.346Z,4.93
2019-05-19T15:27:00.558Z,5.33
2019-05-19T15:29:49.169Z,5.13
2019-05-19T15:32:37.853Z,5.63
2019-05-19T15:35:26.056Z,5.90
2019-05-19T15:38:14.422Z,5.37
2019-05-19T15:41:02.940Z,5.40
2019-05-19T15:43:51.160Z,5.47
2019-05-19T15:46:39.496Z,5.70
2019-05-19T15:49:28.309Z,5.67
2019-05-19T15:52:16.831Z,5.40
2019-05-19T15:55:06.608Z,4.67
2019-05-19T15:57:55.654Z,5.27
2019-05-19T16:00:44.712Z,4.03
2019-05-19T16:03:32.855Z,5.07
2019-05-19T16:06:20.839Z,5.00
2019-05-19T16:09:09.287Z,4.77
2019-05-19T16:11:57.827Z,5.80
2019-05-19T16:14:46.867Z,5.17
2019-05-19T16:17:35.250Z,4.90
2019-05-19T16:20:23.422Z,5.08
2019-05-19T16:23:11.833Z,4.50
2019-05-19T16:25:59.991Z,5.30
2019-05-19T16:28:48.303Z,4.93
2019-05-19T16:31:36.817Z,4.87
2019-05-19T16:34:25.271Z,4.57
2019-05-19T16:37:14.116Z,5.30
2019-05-19T16:40:02.600Z,4.92
2019-05-19T16:42:50.841Z,5.07
2019-05-19T16:45:39.229Z,5.00
2019-05-19T16:48:27.729Z,4.77
2019-05-19T16:51:16.130Z,4.83
2019-05-19T16:54:09.236Z,4.97
2019-05-19T16:56:57.457Z,5.43
2019-05-19T16:59:45.984Z,4.43
2019-05-19T17:02:34.032Z,4.90
2019-05-19T17:05:22.556Z,4.40
2019-05-19T17:08:11.080Z,4.90
2019-05-19T17:10:59.577Z,4.90
2019-05-19T17:13:47.774Z,4.47
2019-05-19T17:16:36.249Z,4.57
2019-05-19T17:19:24.868Z,5.07
2019-05-19T17:22:13.469Z,4.63
2019-05-19T17:24:55.981Z,5.23
2019-05-19T17:27:27.262Z,5.50
2019-05-19T17:29:57.961Z,5.28
2019-05-19T17:32:28.625Z,4.60
2019-05-19T17:34:59.341Z,5.03
2019-05-19T17:37:47.621Z,4.90
2019-05-19T17:40:36.133Z,4.57
2019-05-19T17:43:24.761Z,5.10
2019-05-19T17:46:13.084Z,4.37
2019-05-19T17:49:01.808Z,4.62
2019-05-19T17:51:50.198Z,5.50
2019-05-19T17:54:38.343Z,5.77
2019-05-19T17:57:28.199Z,5.50
2019-05-19T18:00:19.866Z,5.97
2019-05-19T18:03:10.686Z,4.90
2019-05-19T18:05:59.364Z,4.93
2019-05-19T18:08:47.481Z,5.07
2019-05-19T18:11:36.030Z,5.47
2019-05-19T18:14:24.309Z,4.93
2019-05-19T18:17:13.031Z,4.73
2019-05-19T18:20:01.597Z,5.50
2019-05-19T18:22:50.202Z,4.40
2019-05-19T18:25:38.571Z,4.60
2019-05-19T18:28:27.041Z,4.53
2019-05-19T18:31:15.539Z,4.57
2019-05-19T18:34:04.599Z,4.93
2019-05-19T18:36:52.751Z,4.33
2019-05-19T18:39:41.512Z,4.67
2019-05-19T18:42:30.134Z,4.73
2019-05-19T18:45:18.931Z,4.70
2019-05-19T18:48:07.416Z,4.20
2019-05-19T18:50:56.430Z,4.50
2019-05-19T18:53:45.068Z,4.60
2019-05-19T18:56:33.668Z,4.20
2019-05-19T18:59:22.404Z,4.50
2019-05-19T19:02:11.308Z,4.00
2019-05-19T19:05:00.272Z,5.20
2019-05-19T19:07:50.256Z,4.30
2019-05-19T19:10:38.708Z,5.00
2019-05-19T19:13:27.026Z,5.33
2019-05-19T19:16:15.145Z,4.10
2019-05-19T19:19:03.366Z,4.77
2019-05-19T19:21:51.602Z,4.77
2019-05-19T19:24:40.050Z,4.43
2019-05-19T19:27:28.365Z,3.97
2019-05-19T19:30:18.035Z,4.67
2019-05-19T19:33:06.356Z,4.93
2019-05-19T19:35:49.087Z,4.63
2019-05-19T19:38:37.526Z,4.20
2019-05-19T19:41:25.996Z,4.50
2019-05-19T19:44:14.170Z,4.40
2019-05-19T19:47:02.575Z,5.77
2019-05-19T19:49:51.152Z,4.37
2019-05-19T19:52:39.656Z,4.10
2019-05-19T19:55:29.352Z,4.53
2019-05-19T19:58:18.206Z,4.33
2019-05-19T20:01:06.871Z,4.97
2019-05-19T20:03:55.135Z,5.17
2019-05-19T20:06:43.366Z,4.60
2019-05-19T20:09:31.987Z,4.80
2019-05-19T20:12:20.581Z,4.87
2019-05-19T20:15:12.336Z,4.40
2019-05-19T20:18:00.940Z,4.30
2019-05-19T20:20:49.239Z,4.53
2019-05-19T20:23:37.620Z,3.93
2019-05-19T20:26:26.054Z,4.40
2019-05-19T20:29:14.586Z,3.70
2019-05-19T20:32:02.993Z,3.70
2019-05-19T20:34:51.339Z,4.90
2019-05-19T20:37:39.549Z,4.47
2019-05-19T20:40:28.086Z,5.00
2019-05-19T20:43:16.428Z,4.30
2019-05-19T20:46:04.731Z,4.20
2019-05-19T20:48:53.214Z,3.80
2019-05-19T20:51:41.881Z,4.10
2019-05-19T20:54:30.256Z,4.37
2019-05-19T20:57:18.629Z,4.23
2019-05-19T21:00:09.201Z,4.30
2019-05-19T21:02:57.682Z,4.50
2019-05-19T21:05:46.284Z,3.87
2019-05-19T21:08:34.884Z,3.85
2019-05-19T21:11:23.600Z,4.23
2019-05-19T21:14:12.068Z,4.40
2019-05-19T21:17:01.175Z,4.10
2019-05-19T21:19:49.352Z,4.63
2019-05-19T21:22:38.113Z,3.90
2019-05-19T21:25:26.819Z,4.37
2019-05-19T21:28:15.485Z,4.00
2019-05-19T21:31:06.209Z,3.62
2019-05-19T21:33:53.639Z,3.75
2019-05-19T21:36:42.274Z,4.30
2019-05-19T21:39:30.736Z,4.15
2019-05-19T21:42:20.738Z,4.00
2019-05-19T21:45:10.992Z,3.73
2019-05-19T21:47:59.711Z,4.17
2019-05-19T21:50:48.784Z,3.77
2019-05-19T21:53:37.071Z,4.67
2019-05-19T21:56:25.152Z,4.83
2019-05-19T21:59:13.342Z,4.10
2019-05-19T22:02:01.733Z,3.87
2019-05-19T22:04:50.368Z,3.70
2019-05-19T22:07:46.425Z,4.27
2019-05-19T22:10:35.409Z,4.60
2019-05-19T22:13:23.961Z,3.80
2019-05-19T22:16:13.912Z,4.10
2019-05-19T22:19:03.310Z,3.95
2019-05-19T22:21:51.920Z,3.53
2019-05-19T22:24:40.536Z,3.40
2019-05-19T22:27:28.802Z,4.03
2019-05-19T22:30:18.525Z,3.37
2019-05-19T22:33:06.560Z,3.67
2019-05-19T22:35:55.199Z,3.57
2019-05-19T22:38:43.848Z,4.20
2019-05-19T22:41:32.052Z,4.13
2019-05-19T22:44:20.471Z,4.40
2019-05-19T22:47:08.659Z,4.30
2019-05-19T22:49:57.203Z,3.90
2019-05-19T22:52:45.452Z,3.63
2019-05-19T22:55:33.812Z,4.50
2019-05-19T22:58:22.279Z,4.20
2019-05-19T23:01:10.494Z,4.43
2019-05-19T23:03:59.015Z,4.00
2019-05-19T23:06:48.192Z,4.30
2019-05-19T23:09:37.139Z,3.65
2019-05-19T23:12:25.649Z,3.77
2019-05-19T23:15:16.169Z,4.00
2019-05-19T23:18:05.227Z,4.57
2019-05-19T23:20:54.466Z,4.33
2019-05-19T23:23:43.084Z,3.85
2019-05-19T23:26:31.260Z,4.07
2019-05-19T23:29:19.577Z,4.40
2019-05-19T23:32:08.232Z,4.63
2019-05-19T23:34:56.515Z,4.70
2019-05-19T23:37:45.177Z,4.43
2019-05-19T23:40:33.667Z,4.45
2019-05-19T23:43:22.055Z,4.93
2019-05-19T23:46:10.167Z,4.43
2019-05-19T23:48:59.441Z,3.90
2019-05-19T23:51:47.736Z,4.37
2019-05-19T23:54:36.133Z,4.20
2019-05-19T23:57:25.654Z,4.30
